Terminal Aerodrome Forecast
Issued by NWS Pendleton, OR

Home | Current Version | Previous Version | Text Only | Print | Product List | Glossary On
Versions: 1 2 3 4 5 6 7 8 9 10 11 12 13 14 15
000
FTUS46 KPDT 101100
TAFPDT
TAF
KPDT 101140Z 1012/1112 12006KT P6SM FEW200
     FM101700 29008KT P6SM SKC
     FM102300 31008KT P6SM SKC
     FM110400 15006KT P6SM SKC=

USA.gov is the U.S. government's official web portal to all federal, state and local government web resources and services.